Search for airport 
image banner adimage banner adimage banner ad
image banner ad

4CA6 - Chevron Refinery

Located in El Segundo, United States

ICAO - 4CA6, IATA -

Data provided by Airmate  

General information

Coordinates: N33°54'52" W118°25'38"
Elevation is 29 feet MSL.
Magnetic variation is 14° East
View others Airports in California

Operational data

Special qualification required
Current time UTC:
Current local time:
Weather at : KLAX - Los Angeles Intl ( 4 km )
METAR: KLAX 240753Z 24007KT 10SM SCT011 16/14 A3001 RMK AO2 SLP159 T01610144 402170161 $
TAF: KLAX 240712Z 2407/2512 25010KT P6SM BKN012 FM241000 25005KT P6SM BKN009 FM241300 VRB03KT P6SM BKN012 FM241800 26006KT P6SM SCT015 FM242000 26014KT P6SM SKC FM250500 25008KT P6SM SKC FM250800 25005KT P6SM BKN010
View NOTAMs / SUP AIP / TFR affecting this airport [VIEW]
Communications frequencies: [VIEW]

Runways:

Airport contact information

Address: El Segundo United States

Satellite view of 4CA6